sensor_id;sensor_type;location;lat;lon;timestamp;pressure;altitude;pressure_sealevel;temperature;humidity
13434;BME280;6789;47.678;9.158;2022-11-14T00:00:45;96828.25;;;7.32;100.00
13434;BME280;6789;47.678;9.158;2022-11-14T00:05:44;96830.69;;;7.33;100.00
13434;BME280;6789;47.678;9.158;2022-11-14T00:10:36;96837.28;;;7.36;100.00
13434;BME280;6789;47.678;9.158;2022-11-14T00:15:28;96824.44;;;7.41;100.00
13434;BME280;6789;47.678;9.158;2022-11-14T00:20:19;96808.41;;;7.44;100.00
13434;BME280;6789;47.678;9.158;2022-11-14T00:25:11;96824.44;;;7.41;100.00
13434;BME280;6789;47.678;9.158;2022-11-14T00:30:04;96823.84;;;7.45;100.00
13434;BME280;6789;47.678;9.158;2022-11-14T00:34:55;96818.84;;;7.44;100.00
13434;BME280;6789;47.678;9.158;2022-11-14T00:39:47;96798.97;;;7.43;100.00
13434;BME280;6789;47.678;9.158;2022-11-14T00:44:39;96795.34;;;7.44;100.00
13434;BME280;6789;47.678;9.158;2022-11-14T00:49:31;96782.72;;;7.41;100.00
13434;BME280;6789;47.678;9.158;2022-11-14T00:54:22;96782.53;;;7.36;100.00
13434;BME280;6789;47.678;9.158;2022-11-14T00:59:14;96783.13;;;7.38;100.00
13434;BME280;6789;47.678;9.158;2022-11-14T01:04:06;96787.91;;;7.41;100.00
13434;BME280;6789;47.678;9.158;2022-11-14T01:08:58;96792.53;;;7.45;100.00
13434;BME280;6789;47.678;9.158;2022-11-14T01:13:49;96791.53;;;7.46;100.00
13434;BME280;6789;47.678;9.158;2022-11-14T01:18:41;96791.31;;;7.48;100.00
13434;BME280;6789;47.678;9.158;2022-11-14T01:23:33;96799.94;;;7.48;100.00
13434;BME280;6789;47.678;9.158;2022-11-14T01:28:25;96801.56;;;7.56;100.00
13434;BME280;6789;47.678;9.158;2022-11-14T01:33:17;96785.50;;;7.52;100.00
13434;BME280;6789;47.678;9.158;2022-11-14T01:38:13;96771.47;;;7.53;100.00
13434;BME280;6789;47.678;9.158;2022-11-14T01:53:23;96755.00;;;7.46;100.00
13434;BME280;6789;47.678;9.158;2022-11-14T01:58:16;96768.06;;;7.46;100.00
13434;BME280;6789;47.678;9.158;2022-11-14T02:03:10;96773.47;;;7.38;100.00
13434;BME280;6789;47.678;9.158;2022-11-14T02:08:04;96774.28;;;7.39;100.00
13434;BME280;6789;47.678;9.158;2022-11-14T02:12:55;96769.44;;;7.42;100.00
13434;BME280;6789;47.678;9.158;2022-11-14T02:17:47;96758.84;;;7.44;100.00
13434;BME280;6789;47.678;9.158;2022-11-14T02:22:41;96763.03;;;7.45;100.00
13434;BME280;6789;47.678;9.158;2022-11-14T02:27:35;96758.00;;;7.43;100.00
13434;BME280;6789;47.678;9.158;2022-11-14T02:32:28;96761.03;;;7.40;100.00
13434;BME280;6789;47.678;9.158;2022-11-14T02:37:36;96757.84;;;7.38;100.00
13434;BME280;6789;47.678;9.158;2022-11-14T02:42:28;96764.03;;;7.37;100.00
13434;BME280;6789;47.678;9.158;2022-11-14T02:47:20;96756.03;;;7.32;100.00
13434;BME280;6789;47.678;9.158;2022-11-14T02:52:12;96755.84;;;7.27;100.00
13434;BME280;6789;47.678;9.158;2022-11-14T02:57:03;96759.66;;;7.18;100.00
13434;BME280;6789;47.678;9.158;2022-11-14T03:01:55;96767.69;;;7.10;100.00
13434;BME280;6789;47.678;9.158;2022-11-14T03:06:47;96766.69;;;7.05;100.00
13434;BME280;6789;47.678;9.158;2022-11-14T03:11:39;96749.84;;;7.07;100.00
13434;BME280;6789;47.678;9.158;2022-11-14T03:16:31;96761.09;;;7.02;100.00
13434;BME280;6789;47.678;9.158;2022-11-14T03:21:23;96756.28;;;7.05;100.00
13434;BME280;6789;47.678;9.158;2022-11-14T03:26:15;96749.44;;;7.10;100.00
13434;BME280;6789;47.678;9.158;2022-11-14T03:31:10;96745.03;;;7.05;100.00
13434;BME280;6789;47.678;9.158;2022-11-14T03:36:04;96753.84;;;6.97;100.00
13434;BME280;6789;47.678;9.158;2022-11-14T03:41:00;96740.63;;;6.99;100.00
13434;BME280;6789;47.678;9.158;2022-11-14T03:45:52;96750.84;;;6.94;100.00
13434;BME280;6789;47.678;9.158;2022-11-14T03:50:44;96751.84;;;6.93;100.00
13434;BME280;6789;47.678;9.158;2022-11-14T03:55:35;96750.25;;;6.92;100.00
13434;BME280;6789;47.678;9.158;2022-11-14T04:00:28;96741.84;;;6.90;100.00
13434;BME280;6789;47.678;9.158;2022-11-14T04:05:21;96740.63;;;7.05;100.00
13434;BME280;6789;47.678;9.158;2022-11-14T04:10:13;96745.84;;;7.05;100.00
13434;BME280;6789;47.678;9.158;2022-11-14T04:15:06;96742.63;;;7.09;100.00
13434;BME280;6789;47.678;9.158;2022-11-14T04:19:57;96739.00;;;7.10;100.00
13434;BME280;6789;47.678;9.158;2022-11-14T04:24:49;96735.00;;;7.14;100.00
13434;BME280;6789;47.678;9.158;2022-11-14T04:29:41;96732.97;;;7.16;100.00
13434;BME280;6789;47.678;9.158;2022-11-14T04:34:33;96723.38;;;7.17;100.00
13434;BME280;6789;47.678;9.158;2022-11-14T04:39:24;96716.16;;;7.19;100.00
13434;BME280;6789;47.678;9.158;2022-11-14T04:44:16;96707.28;;;7.20;100.00
13434;BME280;6789;47.678;9.158;2022-11-14T04:49:08;96696.28;;;7.18;100.00
13434;BME280;6789;47.678;9.158;2022-11-14T04:53:59;96696.88;;;7.20;100.00
13434;BME280;6789;47.678;9.158;2022-11-14T04:58:51;96703.91;;;7.19;100.00
13434;BME280;6789;47.678;9.158;2022-11-14T05:03:43;96696.06;;;7.19;100.00
13434;BME280;6789;47.678;9.158;2022-11-14T05:08:49;96684.47;;;7.15;100.00
13434;BME280;6789;47.678;9.158;2022-11-14T05:13:55;96693.88;;;7.16;100.00
13434;BME280;6789;47.678;9.158;2022-11-14T05:19:11;96692.88;;;7.17;100.00
13434;BME280;6789;47.678;9.158;2022-11-14T05:24:18;96689.66;;;7.22;100.00
13434;BME280;6789;47.678;9.158;2022-11-14T05:29:24;96677.63;;;7.21;100.00
13434;BME280;6789;47.678;9.158;2022-11-14T05:34:30;96674.00;;;7.28;100.00
13434;BME280;6789;47.678;9.158;2022-11-14T05:39:37;96680.78;;;7.29;100.00
13434;BME280;6789;47.678;9.158;2022-11-14T05:44:43;96678.41;;;7.34;100.00
13434;BME280;6789;47.678;9.158;2022-11-14T05:49:49;96681.59;;;7.43;100.00
13434;BME280;6789;47.678;9.158;2022-11-14T05:54:55;96685.59;;;7.45;100.00
13434;BME280;6789;47.678;9.158;2022-11-14T06:00:05;96676.75;;;7.46;100.00
13434;BME280;6789;47.678;9.158;2022-11-14T06:05:12;96676.31;;;7.49;100.00
13434;BME280;6789;47.678;9.158;2022-11-14T06:10:19;96665.50;;;7.52;100.00
13434;BME280;6789;47.678;9.158;2022-11-14T06:15:26;96663.50;;;7.48;100.00
13434;BME280;6789;47.678;9.158;2022-11-14T06:20:43;96656.03;;;7.58;100.00
13434;BME280;6789;47.678;9.158;2022-11-14T06:25:51;96673.84;;;7.74;100.00
13434;BME280;6789;47.678;9.158;2022-11-14T06:30:59;96696.38;;;7.62;100.00
13434;BME280;6789;47.678;9.158;2022-11-14T06:36:13;96709.19;;;7.63;100.00
13434;BME280;6789;47.678;9.158;2022-11-14T06:41:22;96712.00;;;7.68;100.00
13434;BME280;6789;47.678;9.158;2022-11-14T06:46:29;96709.94;;;7.77;100.00
13434;BME280;6789;47.678;9.158;2022-11-14T06:51:36;96715.09;;;7.89;100.00
13434;BME280;6789;47.678;9.158;2022-11-14T06:56:43;96723.03;;;7.70;100.00
13434;BME280;6789;47.678;9.158;2022-11-14T07:01:51;96721.81;;;7.73;100.00
13434;BME280;6789;47.678;9.158;2022-11-14T07:06:57;96711.59;;;7.71;100.00
13434;BME280;6789;47.678;9.158;2022-11-14T07:12:38;96717.81;;;7.70;100.00
13434;BME280;6789;47.678;9.158;2022-11-14T07:18:03;96720.78;;;7.80;100.00
13434;BME280;6789;47.678;9.158;2022-11-14T07:23:09;96724.81;;;7.76;100.00
13434;BME280;6789;47.678;9.158;2022-11-14T07:28:17;96719.16;;;7.79;100.00
13434;BME280;6789;47.678;9.158;2022-11-14T07:33:23;96727.44;;;7.76;100.00
13434;BME280;6789;47.678;9.158;2022-11-14T07:38:32;96732.03;;;7.74;100.00
13434;BME280;6789;47.678;9.158;2022-11-14T07:43:55;96739.22;;;7.91;100.00
13434;BME280;6789;47.678;9.158;2022-11-14T07:49:33;96752.28;;;7.85;100.00
13434;BME280;6789;47.678;9.158;2022-11-14T07:54:52;96750.31;;;7.80;100.00
13434;BME280;6789;47.678;9.158;2022-11-14T07:59:59;96762.72;;;7.91;100.00
13434;BME280;6789;47.678;9.158;2022-11-14T08:05:05;96762.97;;;7.77;100.00
13434;BME280;6789;47.678;9.158;2022-11-14T08:10:16;96754.13;;;7.78;100.00
13434;BME280;6789;47.678;9.158;2022-11-14T08:15:24;96743.44;;;7.86;100.00
13434;BME280;6789;47.678;9.158;2022-11-14T08:20:51;96755.09;;;7.83;100.00
13434;BME280;6789;47.678;9.158;2022-11-14T08:26:00;96758.09;;;7.87;100.00
13434;BME280;6789;47.678;9.158;2022-11-14T08:31:13;96764.50;;;7.91;100.00
13434;BME280;6789;47.678;9.158;2022-11-14T08:36:23;96762.53;;;7.86;100.00
13434;BME280;6789;47.678;9.158;2022-11-14T08:41:47;96754.44;;;7.94;100.00
13434;BME280;6789;47.678;9.158;2022-11-14T08:47:03;96758.06;;;8.00;100.00
13434;BME280;6789;47.678;9.158;2022-11-14T08:52:41;96767.94;;;7.91;100.00
13434;BME280;6789;47.678;9.158;2022-11-14T08:58:33;96765.28;;;7.98;100.00
13434;BME280;6789;47.678;9.158;2022-11-14T09:03:57;96775.66;;;8.11;100.00
13434;BME280;6789;47.678;9.158;2022-11-14T09:09:41;96773.66;;;8.19;100.00
13434;BME280;6789;47.678;9.158;2022-11-14T09:14:51;96772.28;;;8.04;100.00
13434;BME280;6789;47.678;9.158;2022-11-14T09:20:28;96761.88;;;7.97;100.00
13434;BME280;6789;47.678;9.158;2022-11-14T09:26:06;96755.09;;;7.90;100.00
13434;BME280;6789;47.678;9.158;2022-11-14T09:31:21;96744.44;;;7.91;100.00
13434;BME280;6789;47.678;9.158;2022-11-14T09:37:02;96741.97;;;8.03;100.00
13434;BME280;6789;47.678;9.158;2022-11-14T09:42:50;96751.13;;;8.25;100.00
13434;BME280;6789;47.678;9.158;2022-11-14T09:48:17;96738.22;;;8.36;100.00
13434;BME280;6789;47.678;9.158;2022-11-14T09:53:48;96757.63;;;8.47;100.00
13434;BME280;6789;47.678;9.158;2022-11-14T09:59:12;96759.00;;;8.55;100.00
13434;BME280;6789;47.678;9.158;2022-11-14T10:15:54;96741.66;;;8.92;100.00
13434;BME280;6789;47.678;9.158;2022-11-14T10:21:50;96739.34;;;9.02;100.00
13434;BME280;6789;47.678;9.158;2022-11-14T10:27:39;96748.72;;;9.09;100.00
13434;BME280;6789;47.678;9.158;2022-11-14T10:44:47;96758.94;;;9.17;100.00
13434;BME280;6789;47.678;9.158;2022-11-14T10:50:28;96749.22;;;9.24;100.00
13434;BME280;6789;47.678;9.158;2022-11-14T10:55:41;96753.34;;;9.31;100.00
13434;BME280;6789;47.678;9.158;2022-11-14T11:00:47;96753.47;;;9.43;100.00
13434;BME280;6789;47.678;9.158;2022-11-14T11:06:28;96756.22;;;9.48;100.00
13434;BME280;6789;47.678;9.158;2022-11-14T11:11:39;96756.22;;;9.48;100.00
13434;BME280;6789;47.678;9.158;2022-11-14T11:17:08;96754.34;;;9.55;100.00
13434;BME280;6789;47.678;9.158;2022-11-14T11:22:44;96739.59;;;9.60;100.00
13434;BME280;6789;47.678;9.158;2022-11-14T11:28:17;96734.28;;;9.67;100.00
13434;BME280;6789;47.678;9.158;2022-11-14T11:34:09;96732.84;;;9.89;100.00
13434;BME280;6789;47.678;9.158;2022-11-14T11:40:18;96733.91;;;10.17;100.00
13434;BME280;6789;47.678;9.158;2022-11-14T11:45:31;96730.91;;;10.31;100.00
13434;BME280;6789;47.678;9.158;2022-11-14T11:51:09;96738.59;;;10.44;100.00
13434;BME280;6789;47.678;9.158;2022-11-14T11:57:08;96732.81;;;10.54;100.00
13434;BME280;6789;47.678;9.158;2022-11-14T12:32:43;96734.44;;;11.64;100.00
13434;BME280;6789;47.678;9.158;2022-11-14T12:38:20;96735.53;;;11.79;100.00
13434;BME280;6789;47.678;9.158;2022-11-14T13:01:30;96744.34;;;12.24;100.00
13434;BME280;6789;47.678;9.158;2022-11-14T13:18:28;96737.41;;;12.46;100.00
13434;BME280;6789;47.678;9.158;2022-11-14T13:24:09;96726.84;;;12.57;100.00
13434;BME280;6789;47.678;9.158;2022-11-14T13:52:14;96726.03;;;12.29;100.00
13434;BME280;6789;47.678;9.158;2022-11-14T14:03:16;96714.56;;;12.35;100.00
13434;BME280;6789;47.678;9.158;2022-11-14T14:10:22;96731.81;;;12.42;100.00
13434;BME280;6789;47.678;9.158;2022-11-14T14:15:35;96718.25;;;12.34;100.00
13434;BME280;6789;47.678;9.158;2022-11-14T14:33:39;96719.34;;;12.10;100.00
13434;BME280;6789;47.678;9.158;2022-11-14T14:39:23;96724.03;;;12.08;100.00
13434;BME280;6789;47.678;9.158;2022-11-14T14:49:48;96726.00;;;12.01;100.00
13434;BME280;6789;47.678;9.158;2022-11-14T14:55:49;96721.94;;;11.82;100.00
13434;BME280;6789;47.678;9.158;2022-11-14T15:01:21;96729.72;;;11.77;100.00
13434;BME280;6789;47.678;9.158;2022-11-14T15:06:54;96733.75;;;11.57;100.00
13434;BME280;6789;47.678;9.158;2022-11-14T15:12:06;96727.13;;;11.54;100.00
13434;BME280;6789;47.678;9.158;2022-11-14T15:18:06;96728.72;;;11.21;100.00
13434;BME280;6789;47.678;9.158;2022-11-14T15:54:34;96720.38;;;10.61;100.00
13434;BME280;6789;47.678;9.158;2022-11-14T16:00:21;96726.47;;;10.72;100.00
13434;BME280;6789;47.678;9.158;2022-11-14T16:05:30;96711.94;;;10.59;100.00
13434;BME280;6789;47.678;9.158;2022-11-14T16:10:39;96694.22;;;10.31;100.00
13434;BME280;6789;47.678;9.158;2022-11-14T16:20:57;96684.66;;;10.07;100.00
13434;BME280;6789;47.678;9.158;2022-11-14T16:26:33;96671.88;;;9.99;100.00
13434;BME280;6789;47.678;9.158;2022-11-14T16:31:59;96674.16;;;9.90;100.00
13434;BME280;6789;47.678;9.158;2022-11-14T16:37:25;96661.94;;;9.84;100.00
13434;BME280;6789;47.678;9.158;2022-11-14T16:42:58;96664.16;;;9.87;100.00
13434;BME280;6789;47.678;9.158;2022-11-14T16:48:29;96674.97;;;9.90;100.00
13434;BME280;6789;47.678;9.158;2022-11-14T16:53:46;96682.19;;;9.94;100.00
13434;BME280;6789;47.678;9.158;2022-11-14T16:58:55;96681.75;;;9.97;100.00
13434;BME280;6789;47.678;9.158;2022-11-14T17:04:07;96677.00;;;10.06;100.00
13434;BME280;6789;47.678;9.158;2022-11-14T17:09:36;96677.00;;;10.06;100.00
13434;BME280;6789;47.678;9.158;2022-11-14T17:14:53;96676.81;;;10.07;100.00
13434;BME280;6789;47.678;9.158;2022-11-14T17:20:01;96684.09;;;10.05;100.00
13434;BME280;6789;47.678;9.158;2022-11-14T17:25:33;96685.22;;;10.09;100.00
13434;BME280;6789;47.678;9.158;2022-11-14T17:30:42;96685.53;;;10.01;100.00
13434;BME280;6789;47.678;9.158;2022-11-14T17:35:49;96675.50;;;9.98;100.00
13434;BME280;6789;47.678;9.158;2022-11-14T17:40:58;96699.09;;;9.98;100.00
13434;BME280;6789;47.678;9.158;2022-11-14T17:46:06;96692.31;;;9.91;100.00
13434;BME280;6789;47.678;9.158;2022-11-14T17:51:27;96691.22;;;9.81;100.00
13434;BME280;6789;47.678;9.158;2022-11-14T17:56:35;96693.78;;;9.51;100.00
13434;BME280;6789;47.678;9.158;2022-11-14T18:01:42;96687.75;;;9.33;100.00
13434;BME280;6789;47.678;9.158;2022-11-14T18:06:50;96696.59;;;9.32;100.00
13434;BME280;6789;47.678;9.158;2022-11-14T18:11:56;96691.66;;;9.24;100.00
13434;BME280;6789;47.678;9.158;2022-11-14T18:17:02;96687.00;;;9.08;100.00
13434;BME280;6789;47.678;9.158;2022-11-14T18:22:08;96682.13;;;8.87;100.00
13434;BME280;6789;47.678;9.158;2022-11-14T18:27:16;96679.47;;;8.69;100.00
13434;BME280;6789;47.678;9.158;2022-11-14T18:33:12;96675.69;;;8.65;100.00
13434;BME280;6789;47.678;9.158;2022-11-14T18:38:44;96671.75;;;8.56;100.00
13434;BME280;6789;47.678;9.158;2022-11-14T18:43:55;96671.78;;;8.50;100.00
13434;BME280;6789;47.678;9.158;2022-11-14T18:49:05;96669.06;;;8.39;100.00
13434;BME280;6789;47.678;9.158;2022-11-14T18:54:16;96663.25;;;8.37;100.00
13434;BME280;6789;47.678;9.158;2022-11-14T18:59:34;96663.41;;;8.42;100.00
13434;BME280;6789;47.678;9.158;2022-11-14T19:04:44;96668.69;;;8.35;100.00
13434;BME280;6789;47.678;9.158;2022-11-14T19:10:29;96676.38;;;8.30;100.00
13434;BME280;6789;47.678;9.158;2022-11-14T19:15:35;96672.38;;;8.21;100.00
13434;BME280;6789;47.678;9.158;2022-11-14T19:20:42;96677.00;;;8.19;100.00
13434;BME280;6789;47.678;9.158;2022-11-14T19:25:48;96681.25;;;8.14;100.00
13434;BME280;6789;47.678;9.158;2022-11-14T19:31:01;96681.31;;;8.01;100.00
13434;BME280;6789;47.678;9.158;2022-11-14T19:36:19;96675.25;;;8.07;100.00
13434;BME280;6789;47.678;9.158;2022-11-14T19:41:28;96677.88;;;8.07;100.00
13434;BME280;6789;47.678;9.158;2022-11-14T19:47:01;96682.06;;;7.77;100.00
13434;BME280;6789;47.678;9.158;2022-11-14T19:52:10;96681.94;;;7.59;100.00
13434;BME280;6789;47.678;9.158;2022-11-14T19:57:29;96677.16;;;7.50;100.00
13434;BME280;6789;47.678;9.158;2022-11-14T20:02:37;96668.94;;;7.40;100.00
13434;BME280;6789;47.678;9.158;2022-11-14T20:07:54;96672.75;;;7.37;100.00
13434;BME280;6789;47.678;9.158;2022-11-14T20:13:04;96664.09;;;7.43;100.00
13434;BME280;6789;47.678;9.158;2022-11-14T20:18:11;96661.88;;;7.53;100.00
13434;BME280;6789;47.678;9.158;2022-11-14T20:23:27;96671.84;;;7.69;100.00
13434;BME280;6789;47.678;9.158;2022-11-14T20:29:03;96659.72;;;7.81;100.00
13434;BME280;6789;47.678;9.158;2022-11-14T20:34:13;96666.31;;;7.90;100.00
13434;BME280;6789;47.678;9.158;2022-11-14T20:39:20;96665.22;;;8.04;100.00
13434;BME280;6789;47.678;9.158;2022-11-14T20:44:27;96658.34;;;8.16;100.00
13434;BME280;6789;47.678;9.158;2022-11-14T20:49:33;96663.16;;;8.19;100.00
13434;BME280;6789;47.678;9.158;2022-11-14T20:54:49;96660.31;;;8.27;100.00
13434;BME280;6789;47.678;9.158;2022-11-14T20:59:55;96650.41;;;8.35;100.00
13434;BME280;6789;47.678;9.158;2022-11-14T21:05:01;96638.47;;;8.46;100.00
13434;BME280;6789;47.678;9.158;2022-11-14T21:10:17;96641.38;;;8.55;100.00
13434;BME280;6789;47.678;9.158;2022-11-14T21:15:45;96634.00;;;8.52;100.00
13434;BME280;6789;47.678;9.158;2022-11-14T21:21:07;96642.13;;;8.62;100.00
13434;BME280;6789;47.678;9.158;2022-11-14T21:26:16;96649.81;;;8.57;100.00
13434;BME280;6789;47.678;9.158;2022-11-14T21:31:29;96641.00;;;8.52;100.00
13434;BME280;6789;47.678;9.158;2022-11-14T21:36:38;96644.31;;;8.41;100.00
13434;BME280;6789;47.678;9.158;2022-11-14T21:41:45;96644.69;;;8.45;100.00
13434;BME280;6789;47.678;9.158;2022-11-14T21:47:05;96645.75;;;8.37;100.00
13434;BME280;6789;47.678;9.158;2022-11-14T21:52:01;96633.63;;;8.49;100.00
13434;BME280;6789;47.678;9.158;2022-11-14T21:57:18;96632.78;;;8.49;100.00
13434;BME280;6789;47.678;9.158;2022-11-14T22:02:24;96638.09;;;8.42;100.00
13434;BME280;6789;47.678;9.158;2022-11-14T22:07:48;96633.06;;;8.41;100.00
13434;BME280;6789;47.678;9.158;2022-11-14T22:12:56;96634.88;;;8.40;100.00
13434;BME280;6789;47.678;9.158;2022-11-14T22:18:02;96629.88;;;8.39;100.00
13434;BME280;6789;47.678;9.158;2022-11-14T22:23:08;96634.34;;;8.32;100.00
13434;BME280;6789;47.678;9.158;2022-11-14T22:28:14;96627.75;;;8.29;100.00
13434;BME280;6789;47.678;9.158;2022-11-14T22:33:20;96618.94;;;8.24;100.00
13434;BME280;6789;47.678;9.158;2022-11-14T22:38:29;96612.06;;;8.29;100.00
13434;BME280;6789;47.678;9.158;2022-11-14T22:43:37;96618.53;;;8.20;100.00
13434;BME280;6789;47.678;9.158;2022-11-14T22:48:44;96615.38;;;8.12;100.00
13434;BME280;6789;47.678;9.158;2022-11-14T22:53:55;96618.19;;;8.10;100.00
13434;BME280;6789;47.678;9.158;2022-11-14T22:59:02;96615.38;;;8.12;100.00
13434;BME280;6789;47.678;9.158;2022-11-14T23:04:08;96613.59;;;8.06;100.00
13434;BME280;6789;47.678;9.158;2022-11-14T23:09:14;96618.38;;;8.15;100.00
13434;BME280;6789;47.678;9.158;2022-11-14T23:14:20;96613.44;;;8.01;100.00
13434;BME280;6789;47.678;9.158;2022-11-14T23:19:25;96611.84;;;8.00;100.00
13434;BME280;6789;47.678;9.158;2022-11-14T23:24:31;96615.44;;;7.99;100.00
13434;BME280;6789;47.678;9.158;2022-11-14T23:29:37;96615.16;;;7.82;100.00
13434;BME280;6789;47.678;9.158;2022-11-14T23:34:47;96621.81;;;7.78;100.00
13434;BME280;6789;47.678;9.158;2022-11-14T23:39:52;96608.00;;;7.72;100.00
13434;BME280;6789;47.678;9.158;2022-11-14T23:45:00;96599.38;;;7.71;100.00
13434;BME280;6789;47.678;9.158;2022-11-14T23:50:09;96599.91;;;7.79;100.00
13434;BME280;6789;47.678;9.158;2022-11-14T23:55:15;96601.09;;;7.83;100.00
